Airport View

Enter AWOS ICAO identifier for current METAR.

ex. KFNL

KBZN 261156Z 19004KT 10SM CLR 08/06 A3001 RMK AO2 SLP142 60000 T00780061 10133 20061 51004

26 Jun 2019 12:57

Frequency: 135.425

Phone: 406-388-4882

Other Area AWOS: KLVM - KEKS - KHLN - KWYS

TAF KBZN 261120Z 2612/2718 VRB06KT P6SM SCT070 SCT150 FM262100 VRB06KT P6SM -SHRA SCT030 OVC070 TEMPO 2621/2701 VRB30G50KT 4SM +TSRA SCT005 OVC030CB FM270300 VRB06KT P6SM SCT070 SCT150